Terminal Aerodrome Forecast
Issued by NWS

Home | Current Version | Previous Version | Text Only | Print | Product List | Glossary On
Versions: 1 2 3 4 5 6 7 8 9 10 11 12 13 14 15 16 17 18 19
479
FTUS42 KILM 171802 AAB
TAFCRE
TAF AMD
KCRE 171802Z 1718/1818 17010KT P6SM VCTS SCT020 SCT050CB
      TEMPO 1719/1721 2SM -RA SCT015 BKN020
     FM180000 19007KT P6SM SCT020 SCT060
     FM180800 23007KT P6SM VCSH FEW020 SCT050
     FM181400 23010KT P6SM SCT050=

USA.gov is the U.S. government's official web portal to all federal, state and local government web resources and services.